createdAt,value
2022-10-22T00:00:43.106Z,34.50
2022-10-22T00:03:10.176Z,32.00
2022-10-22T00:05:39.382Z,34.10
2022-10-22T00:08:06.409Z,34.10
2022-10-22T00:10:38.476Z,29.40
2022-10-22T00:13:05.579Z,28.60
2022-10-22T00:15:32.874Z,24.20
2022-10-22T00:17:59.815Z,27.70
2022-10-22T00:20:28.803Z,21.40
2022-10-22T00:23:00.581Z,25.60
2022-10-22T00:25:27.586Z,23.30
2022-10-22T00:27:54.704Z,22.20
2022-10-22T00:30:21.764Z,22.60
2022-10-22T00:32:48.717Z,23.40
2022-10-22T00:35:17.615Z,23.70
2022-10-22T00:37:45.794Z,23.40
2022-10-22T00:40:13.346Z,21.60
2022-10-22T00:42:40.908Z,21.20
2022-10-22T00:45:11.227Z,22.20
2022-10-22T00:47:40.913Z,20.60
2022-10-22T00:50:10.032Z,23.20
2022-10-22T00:52:38.695Z,20.60
2022-10-22T00:55:06.352Z,18.90
2022-10-22T00:57:34.106Z,20.40
2022-10-22T01:00:01.262Z,20.50
2022-10-22T01:02:29.017Z,21.90
2022-10-22T01:04:56.129Z,22.60
2022-10-22T01:07:23.253Z,20.90
2022-10-22T01:10:00.520Z,20.00
2022-10-22T01:13:06.420Z,24.20
2022-10-22T01:15:59.319Z,22.90
2022-10-22T01:18:35.536Z,26.20
2022-10-22T01:21:35.136Z,33.30
2022-10-22T01:24:20.744Z,31.10
2022-10-22T01:26:57.598Z,26.30
2022-10-22T01:29:24.817Z,44.00
2022-10-22T01:31:54.563Z,37.40
2022-10-22T01:34:21.991Z,45.50
2022-10-22T01:36:49.530Z,39.70
2022-10-22T01:39:16.440Z,39.20
2022-10-22T01:41:45.508Z,33.10
2022-10-22T01:44:42.163Z,27.70
2022-10-22T01:47:21.324Z,19.70
2022-10-22T01:50:29.002Z,22.20
2022-10-22T01:53:32.893Z,41.40
2022-10-22T01:56:41.122Z,30.00
2022-10-22T01:59:35.260Z,20.20
2022-10-22T02:02:08.357Z,23.20
2022-10-22T02:04:46.995Z,27.20
2022-10-22T02:07:15.697Z,21.40
2022-10-22T02:09:43.292Z,17.10
2022-10-22T02:12:10.922Z,23.70
2022-10-22T02:14:39.196Z,64.90
2022-10-22T02:17:09.150Z,83.60
2022-10-22T02:19:47.988Z,62.70
2022-10-22T02:22:15.625Z,42.90
2022-10-22T02:24:42.857Z,41.40
2022-10-22T02:27:32.931Z,32.70
2022-10-22T02:30:10.980Z,18.90
2022-10-22T02:33:08.534Z,23.90
2022-10-22T02:35:35.557Z,27.90
2022-10-22T02:38:02.916Z,32.60
2022-10-22T02:40:30.995Z,27.80
2022-10-22T02:42:57.959Z,29.90
2022-10-22T02:45:25.422Z,24.50
2022-10-22T02:47:52.447Z,31.60
2022-10-22T02:50:21.965Z,25.20
2022-10-22T02:52:49.139Z,20.60
2022-10-22T02:55:16.080Z,21.30
2022-10-22T02:57:44.256Z,20.90
2022-10-22T03:00:11.634Z,20.80
2022-10-22T03:02:40.142Z,17.80
2022-10-22T03:05:07.878Z,22.50
2022-10-22T03:07:35.277Z,21.70
2022-10-22T03:10:03.010Z,21.00
2022-10-22T03:12:34.322Z,21.10
2022-10-22T03:15:01.258Z,20.10
2022-10-22T03:17:32.838Z,20.80
2022-10-22T03:19:59.787Z,21.60
2022-10-22T03:22:28.893Z,19.30
2022-10-22T03:24:59.101Z,23.80
2022-10-22T03:27:27.194Z,19.90
2022-10-22T03:29:54.131Z,17.40
2022-10-22T03:32:21.234Z,18.90
2022-10-22T03:34:48.609Z,16.80
2022-10-22T03:37:15.665Z,17.80
2022-10-22T03:39:42.732Z,16.90
2022-10-22T03:42:13.689Z,18.70
2022-10-22T03:44:40.877Z,19.30
2022-10-22T03:47:08.320Z,21.40
2022-10-22T03:49:35.640Z,20.90
2022-10-22T03:52:09.969Z,23.60
2022-10-22T03:57:09.414Z,17.70
2022-10-22T03:59:37.416Z,15.60
2022-10-22T04:02:04.633Z,15.60
2022-10-22T04:04:31.611Z,17.40
2022-10-22T04:06:59.077Z,18.00
2022-10-22T04:09:26.186Z,17.50
2022-10-22T04:11:53.853Z,16.40
2022-10-22T04:14:24.719Z,17.70
2022-10-22T04:16:52.222Z,21.30
2022-10-22T04:19:19.150Z,20.30
2022-10-22T04:21:46.142Z,26.60
2022-10-22T04:24:13.981Z,23.30
2022-10-22T04:26:41.638Z,30.10
2022-10-22T04:29:11.914Z,25.20
2022-10-22T04:31:43.107Z,26.20
2022-10-22T04:34:10.215Z,21.40
2022-10-22T04:36:37.440Z,35.10
2022-10-22T04:39:04.611Z,30.20
2022-10-22T04:41:34.072Z,28.60
2022-10-22T04:44:02.119Z,27.50
2022-10-22T04:46:30.867Z,26.60
2022-10-22T04:48:58.001Z,27.70
2022-10-22T04:51:25.878Z,30.50
2022-10-22T04:53:54.352Z,39.50
2022-10-22T04:56:26.386Z,45.20
2022-10-22T04:59:04.881Z,32.70
2022-10-22T05:01:35.793Z,35.60
2022-10-22T05:04:06.202Z,38.80
2022-10-22T05:06:34.327Z,37.40
2022-10-22T05:09:04.453Z,38.90
2022-10-22T05:11:37.044Z,31.50
2022-10-22T05:14:05.269Z,60.50
2022-10-22T05:16:33.379Z,32.50
2022-10-22T05:19:00.775Z,41.20
2022-10-22T05:21:32.384Z,40.50
2022-10-22T05:24:00.038Z,31.50
2022-10-22T05:26:27.338Z,36.00
2022-10-22T05:28:55.115Z,36.90
2022-10-22T05:31:22.183Z,50.30
2022-10-22T05:33:49.333Z,58.50
2022-10-22T05:36:18.413Z,59.80
2022-10-22T05:38:47.663Z,54.20
2022-10-22T05:41:16.813Z,45.60
2022-10-22T05:43:44.249Z,81.50
2022-10-22T05:46:22.030Z,77.00
2022-10-22T05:49:01.752Z,48.90
2022-10-22T05:51:30.546Z,45.50
2022-10-22T05:54:01.221Z,33.60
2022-10-22T05:56:28.946Z,28.80
2022-10-22T05:58:56.000Z,32.30
2022-10-22T06:01:25.104Z,31.30
2022-10-22T06:04:00.259Z,36.00
2022-10-22T06:06:36.317Z,35.20
2022-10-22T06:09:05.169Z,30.60
2022-10-22T06:11:35.124Z,31.50
2022-10-22T06:14:03.795Z,100.20
2022-10-22T06:16:31.209Z,39.80
2022-10-22T06:19:02.120Z,44.80
2022-10-22T06:21:29.493Z,43.80
2022-10-22T06:23:58.342Z,47.20
2022-10-22T06:26:25.287Z,83.40
2022-10-22T06:28:53.051Z,45.70
2022-10-22T06:31:20.225Z,64.70
2022-10-22T06:33:50.605Z,53.00
2022-10-22T06:36:19.825Z,72.10
2022-10-22T06:38:51.101Z,75.20
2022-10-22T06:41:18.200Z,75.20
2022-10-22T06:43:46.901Z,86.20
2022-10-22T06:46:18.991Z,49.20
2022-10-22T06:48:55.530Z,40.50
2022-10-22T06:51:23.301Z,39.30
2022-10-22T06:53:50.362Z,44.90
2022-10-22T06:56:19.085Z,38.30
2022-10-22T06:58:50.894Z,32.40
2022-10-22T07:01:19.528Z,34.40
2022-10-22T07:03:46.531Z,28.20
2022-10-22T07:06:15.306Z,32.70
2022-10-22T07:08:42.432Z,25.20
2022-10-22T07:11:11.643Z,22.10
2022-10-22T07:13:38.772Z,33.90
2022-10-22T07:16:09.239Z,33.50
2022-10-22T07:18:37.313Z,28.80
2022-10-22T07:21:08.235Z,51.10
2022-10-22T07:23:36.513Z,30.30
2022-10-22T07:26:07.427Z,37.70
2022-10-22T07:28:35.639Z,32.80
2022-10-22T07:31:02.625Z,142.00
2022-10-22T07:33:31.366Z,46.20
2022-10-22T07:35:59.991Z,39.20
2022-10-22T07:38:27.390Z,35.20
2022-10-22T07:40:54.656Z,25.40
2022-10-22T07:43:21.696Z,23.90
2022-10-22T07:45:49.753Z,53.10
2022-10-22T07:48:16.817Z,27.20
2022-10-22T07:53:17.368Z,33.60
2022-10-22T07:55:44.338Z,27.90
2022-10-22T07:58:11.320Z,28.70
2022-10-22T08:00:38.417Z,54.10
2022-10-22T08:03:05.404Z,27.40
2022-10-22T08:05:32.664Z,28.50
2022-10-22T08:07:59.626Z,34.70
2022-10-22T08:10:26.652Z,35.90
2022-10-22T08:12:54.713Z,37.30
2022-10-22T08:15:25.635Z,38.90
2022-10-22T08:17:53.125Z,33.80
2022-10-22T08:20:20.165Z,62.40
2022-10-22T08:22:48.576Z,53.00
2022-10-22T08:25:18.092Z,32.60
2022-10-22T08:27:45.434Z,33.20
2022-10-22T08:30:13.338Z,32.10
2022-10-22T08:32:40.846Z,60.50
2022-10-22T08:35:08.243Z,44.20
2022-10-22T08:37:36.089Z,32.60
2022-10-22T08:40:04.152Z,23.30
2022-10-22T08:42:49.766Z,25.00
2022-10-22T08:45:38.578Z,31.80
2022-10-22T08:48:21.644Z,33.20
2022-10-22T08:50:50.030Z,28.40
2022-10-22T08:53:22.490Z,26.90
2022-10-22T08:55:50.214Z,26.20
2022-10-22T08:58:40.276Z,25.50
2022-10-22T09:01:20.138Z,36.00
2022-10-22T09:03:51.464Z,20.00
2022-10-22T09:06:22.935Z,47.80
2022-10-22T09:08:50.184Z,20.40
2022-10-22T09:11:23.935Z,30.80
2022-10-22T09:13:51.842Z,35.00
2022-10-22T09:16:19.954Z,19.10
2022-10-22T09:19:15.086Z,39.30
2022-10-22T09:22:08.434Z,23.30
2022-10-22T09:24:35.479Z,37.40
2022-10-22T09:27:02.775Z,118.40
2022-10-22T09:29:33.618Z,33.00
2022-10-22T09:32:00.802Z,21.90
2022-10-22T09:34:31.082Z,23.90
2022-10-22T09:37:06.435Z,20.00
2022-10-22T09:39:54.104Z,15.70
2022-10-22T09:42:21.269Z,36.40
2022-10-22T09:44:56.050Z,25.00
2022-10-22T09:47:42.731Z,39.40
2022-10-22T09:50:28.877Z,19.90
2022-10-22T09:53:21.236Z,80.80
2022-10-22T09:58:26.396Z,41.20
2022-10-22T10:00:56.411Z,22.60
2022-10-22T10:03:27.782Z,58.70
2022-10-22T10:05:58.060Z,44.30
2022-10-22T10:08:27.511Z,25.50
2022-10-22T10:11:01.203Z,12.90
2022-10-22T10:13:50.355Z,28.30
2022-10-22T10:16:25.452Z,28.20
2022-10-22T10:19:11.674Z,38.70
2022-10-22T10:21:39.115Z,35.00
2022-10-22T10:24:20.756Z,31.90
2022-10-22T10:26:54.335Z,34.00
2022-10-22T10:29:33.062Z,30.00
2022-10-22T10:32:13.554Z,28.00
2022-10-22T10:34:48.973Z,34.80
2022-10-22T10:37:26.638Z,26.50
2022-10-22T10:40:08.844Z,30.80
2022-10-22T10:42:57.325Z,35.70
2022-10-22T10:45:36.985Z,22.90
2022-10-22T10:48:12.722Z,25.40
2022-10-22T10:50:40.499Z,18.70
2022-10-22T10:53:47.853Z,42.10
2022-10-22T10:56:41.448Z,26.10
2022-10-22T10:59:30.650Z,27.00
2022-10-22T11:02:09.737Z,18.30
2022-10-22T11:05:08.841Z,39.80
2022-10-22T11:07:42.794Z,18.90
2022-10-22T11:10:51.778Z,19.00
2022-10-22T11:13:22.146Z,38.00
2022-10-22T11:16:12.442Z,27.00
2022-10-22T11:19:22.524Z,31.30
2022-10-22T11:22:30.304Z,32.10
2022-10-22T11:25:13.569Z,22.60
2022-10-22T11:27:50.214Z,23.40
2022-10-22T11:30:22.062Z,37.90
2022-10-22T11:32:54.554Z,40.20
2022-10-22T11:35:26.636Z,19.50
2022-10-22T11:37:55.060Z,19.30
2022-10-22T11:40:32.704Z,12.80
2022-10-22T11:43:07.279Z,16.00
2022-10-22T11:45:42.120Z,40.60
2022-10-22T11:48:18.957Z,17.00
2022-10-22T11:50:48.582Z,20.80
2022-10-22T11:53:21.618Z,20.40
2022-10-22T11:56:18.060Z,22.80
2022-10-22T11:58:50.697Z,23.60
2022-10-22T12:01:26.898Z,18.00
2022-10-22T12:04:17.769Z,26.30
2022-10-22T12:06:56.842Z,54.20
2022-10-22T12:09:26.721Z,23.00
2022-10-22T12:14:26.738Z,29.90
2022-10-22T12:16:59.654Z,40.90
2022-10-22T12:19:37.441Z,34.00
2022-10-22T12:22:07.591Z,31.50
2022-10-22T12:24:37.243Z,37.10
2022-10-22T12:27:04.626Z,56.90
2022-10-22T12:29:32.193Z,109.10
2022-10-22T12:32:03.365Z,58.40
2022-10-22T12:34:30.392Z,42.90
2022-10-22T12:36:57.343Z,43.00
2022-10-22T12:39:27.442Z,50.40
2022-10-22T12:41:54.670Z,45.70
2022-10-22T12:44:21.624Z,39.30
2022-10-22T12:46:52.934Z,44.70
2022-10-22T12:49:42.448Z,34.60
2022-10-22T12:52:15.167Z,66.80
2022-10-22T12:54:42.553Z,27.50
2022-10-22T12:57:14.433Z,54.00
2022-10-22T12:59:48.762Z,37.30
2022-10-22T13:02:24.762Z,48.70
2022-10-22T13:05:21.855Z,74.10
2022-10-22T13:08:03.241Z,132.40
2022-10-22T13:10:33.045Z,139.10
2022-10-22T13:13:06.464Z,99.90
2022-10-22T13:15:36.972Z,95.80
2022-10-22T13:18:29.228Z,73.10
2022-10-22T13:21:05.980Z,60.30
2022-10-22T13:23:34.140Z,52.80
2022-10-22T13:26:02.365Z,45.90
2022-10-22T13:28:33.689Z,40.40
2022-10-22T13:31:02.246Z,54.00
2022-10-22T13:33:40.393Z,60.30
2022-10-22T13:36:08.608Z,51.50
2022-10-22T13:38:36.101Z,48.60
2022-10-22T13:41:04.911Z,48.70
2022-10-22T13:43:32.417Z,52.20
2022-10-22T13:45:59.723Z,116.70
2022-10-22T13:48:26.784Z,208.20
2022-10-22T13:50:54.443Z,213.60
2022-10-22T13:53:23.213Z,140.20
2022-10-22T13:55:50.454Z,129.90
2022-10-22T13:58:19.037Z,121.80
2022-10-22T14:00:48.641Z,77.20
2022-10-22T14:03:17.731Z,80.10
2022-10-22T14:05:47.258Z,79.60
2022-10-22T14:08:19.014Z,101.90
2022-10-22T14:10:47.606Z,89.20
2022-10-22T14:13:15.724Z,140.60
2022-10-22T14:15:43.459Z,228.60
2022-10-22T14:18:12.863Z,103.00
2022-10-22T14:20:40.289Z,82.00
2022-10-22T14:25:48.194Z,90.70
2022-10-22T14:28:15.228Z,92.10
2022-10-22T14:30:42.152Z,86.00
2022-10-22T14:33:17.342Z,85.70
2022-10-22T14:35:44.300Z,98.10
2022-10-22T14:38:11.340Z,95.60
2022-10-22T14:40:39.401Z,136.00
2022-10-22T14:43:06.477Z,127.90
2022-10-22T14:45:34.148Z,112.30
2022-10-22T14:48:02.008Z,114.70
2022-10-22T14:50:29.251Z,112.00
2022-10-22T14:52:58.918Z,124.80
2022-10-22T14:55:27.229Z,209.60
2022-10-22T14:57:55.261Z,203.60
2022-10-22T15:00:22.637Z,154.30
2022-10-22T15:02:49.646Z,163.90
2022-10-22T15:05:17.684Z,153.30
2022-10-22T15:07:45.252Z,151.50
2022-10-22T15:10:12.253Z,143.50
2022-10-22T15:12:40.104Z,148.50
2022-10-22T15:15:07.514Z,147.30
2022-10-22T15:17:34.669Z,136.20
2022-10-22T15:20:04.220Z,138.90
2022-10-22T15:22:32.081Z,132.60
2022-10-22T15:24:59.064Z,136.10
2022-10-22T15:27:26.078Z,131.20
2022-10-22T15:29:54.938Z,138.80
2022-10-22T15:32:24.981Z,150.50
2022-10-22T15:34:53.119Z,149.30
2022-10-22T15:37:20.721Z,205.20
2022-10-22T15:39:49.428Z,214.60
2022-10-22T15:42:18.614Z,255.30
2022-10-22T15:44:45.976Z,181.40
2022-10-22T15:47:13.050Z,217.60
2022-10-22T15:49:41.957Z,211.40
2022-10-22T15:52:09.875Z,192.90
2022-10-22T15:54:39.632Z,191.60
2022-10-22T15:57:08.782Z,175.30
2022-10-22T15:59:36.198Z,187.50
2022-10-22T16:02:03.475Z,254.60
2022-10-22T16:04:30.774Z,329.10
2022-10-22T16:07:01.108Z,353.80
2022-10-22T16:09:28.319Z,271.20
2022-10-22T16:11:55.660Z,272.80
2022-10-22T16:14:24.139Z,268.50
2022-10-22T16:16:55.593Z,269.10
2022-10-22T16:19:23.654Z,264.40
2022-10-22T16:21:51.699Z,319.80
2022-10-22T16:24:19.204Z,341.40
2022-10-22T16:26:47.672Z,364.40
2022-10-22T16:29:15.888Z,353.20
2022-10-22T16:31:47.076Z,379.70
2022-10-22T16:34:14.567Z,410.10
2022-10-22T16:36:44.939Z,353.10
2022-10-22T16:39:12.158Z,387.30
2022-10-22T16:41:39.581Z,448.40
2022-10-22T16:44:07.891Z,334.50
2022-10-22T16:46:39.451Z,347.40
2022-10-22T16:49:06.961Z,375.70
2022-10-22T16:51:34.260Z,377.90
2022-10-22T16:54:03.667Z,334.90
2022-10-22T16:56:33.778Z,387.50
2022-10-22T16:59:00.889Z,357.50
2022-10-22T17:01:29.846Z,399.70
2022-10-22T17:03:59.480Z,408.10
2022-10-22T17:06:26.977Z,341.70
2022-10-22T17:08:54.260Z,373.80
2022-10-22T17:11:23.503Z,300.40
2022-10-22T17:13:52.766Z,275.10
2022-10-22T17:16:23.054Z,259.00
2022-10-22T17:18:50.465Z,248.10
2022-10-22T17:21:17.770Z,223.30
2022-10-22T17:23:46.301Z,204.90
2022-10-22T17:26:21.057Z,206.70
2022-10-22T17:28:48.087Z,214.70
2022-10-22T17:31:27.567Z,200.30
2022-10-22T17:33:56.003Z,209.30
2022-10-22T17:36:25.137Z,210.50
2022-10-22T17:38:53.982Z,189.60
2022-10-22T17:41:23.106Z,189.70
2022-10-22T17:43:50.197Z,193.10
2022-10-22T17:46:24.785Z,190.90
2022-10-22T17:48:56.199Z,186.60
2022-10-22T17:51:23.654Z,169.50
2022-10-22T17:53:50.972Z,186.80
2022-10-22T17:56:20.748Z,184.00
2022-10-22T17:58:48.264Z,176.40
2022-10-22T18:01:23.852Z,174.40
2022-10-22T18:03:52.044Z,136.70
2022-10-22T18:06:19.376Z,116.50
2022-10-22T18:08:46.585Z,80.50
2022-10-22T18:11:17.106Z,83.20
2022-10-22T18:13:50.670Z,90.70
2022-10-22T18:18:48.825Z,108.40
2022-10-22T18:21:16.691Z,121.30
2022-10-22T18:23:43.815Z,100.40
2022-10-22T18:26:12.839Z,165.70
2022-10-22T18:28:40.562Z,127.00
2022-10-22T18:31:08.609Z,103.80
2022-10-22T18:33:36.345Z,98.40
2022-10-22T18:36:11.110Z,97.30
2022-10-22T18:38:38.421Z,99.80
2022-10-22T18:41:09.365Z,120.90
2022-10-22T18:43:37.386Z,102.20
2022-10-22T18:46:08.024Z,104.00
2022-10-22T18:48:37.221Z,91.20
2022-10-22T18:51:08.517Z,79.20
2022-10-22T18:53:36.716Z,176.40
2022-10-22T18:56:11.121Z,94.80
2022-10-22T18:58:42.280Z,86.80
2022-10-22T19:01:10.307Z,91.80
2022-10-22T19:03:38.923Z,88.90
2022-10-22T19:06:06.953Z,82.60
2022-10-22T19:08:35.867Z,91.80
2022-10-22T19:11:09.533Z,92.40
2022-10-22T19:13:36.567Z,94.10
2022-10-22T19:16:06.908Z,94.00
2022-10-22T19:18:34.776Z,94.30
2022-10-22T19:21:02.145Z,101.70
2022-10-22T19:23:32.815Z,99.80
2022-10-22T19:26:07.207Z,109.30
2022-10-22T19:28:34.166Z,88.10
2022-10-22T19:31:01.237Z,96.30
2022-10-22T19:33:34.017Z,98.20
2022-10-22T19:36:05.420Z,107.00
2022-10-22T19:38:37.723Z,113.00
2022-10-22T19:41:09.446Z,113.90
2022-10-22T19:43:36.426Z,116.40
2022-10-22T19:46:04.551Z,98.30
2022-10-22T19:48:31.738Z,89.90
2022-10-22T19:51:03.584Z,94.50
2022-10-22T19:53:30.926Z,100.70
2022-10-22T19:55:58.730Z,101.50
2022-10-22T19:58:27.117Z,105.10
2022-10-22T20:00:54.340Z,108.10
2022-10-22T20:03:21.871Z,116.80
2022-10-22T20:05:50.582Z,109.80
2022-10-22T20:08:17.597Z,100.60
2022-10-22T20:10:49.146Z,127.90
2022-10-22T20:13:16.409Z,106.60
2022-10-22T20:15:43.374Z,111.50
2022-10-22T20:18:10.430Z,135.20
2022-10-22T20:20:40.514Z,133.00
2022-10-22T20:23:08.788Z,137.70
2022-10-22T20:25:35.994Z,123.00
2022-10-22T20:28:02.991Z,134.40
2022-10-22T20:30:30.507Z,135.20
2022-10-22T20:32:57.570Z,137.00
2022-10-22T20:35:24.563Z,141.30
2022-10-22T20:37:51.718Z,131.10
2022-10-22T20:40:20.212Z,139.60
2022-10-22T20:42:49.420Z,110.80
2022-10-22T20:45:16.376Z,123.20
2022-10-22T20:47:51.375Z,153.50
2022-10-22T20:50:18.990Z,148.10
2022-10-22T20:52:45.923Z,139.80
2022-10-22T20:57:45.829Z,132.80
2022-10-22T21:00:15.231Z,104.90
2022-10-22T21:02:42.816Z,96.70
2022-10-22T21:05:10.095Z,96.70
2022-10-22T21:07:37.889Z,94.80
2022-10-22T21:10:05.412Z,100.10
2022-10-22T21:12:33.101Z,95.70
2022-10-22T21:15:04.622Z,94.20
2022-10-22T21:20:01.368Z,84.20
2022-10-22T21:22:28.491Z,85.20
2022-10-22T21:24:56.131Z,86.20
2022-10-22T21:27:23.131Z,93.30
2022-10-22T21:29:50.626Z,89.50
2022-10-22T21:32:17.648Z,91.80
2022-10-22T21:34:46.467Z,88.90
2022-10-22T21:37:13.435Z,76.50
2022-10-22T21:39:42.736Z,76.00
2022-10-22T21:42:09.806Z,78.40
2022-10-22T21:44:37.414Z,78.70
2022-10-22T21:47:04.635Z,83.10
2022-10-22T21:49:31.725Z,80.50
2022-10-22T21:52:00.410Z,79.40
2022-10-22T21:54:27.961Z,69.60
2022-10-22T21:56:54.873Z,68.40
2022-10-22T21:59:21.915Z,80.00
2022-10-22T22:01:49.470Z,80.30
2022-10-22T22:04:16.410Z,80.60
2022-10-22T22:06:45.669Z,86.90
2022-10-22T22:09:12.741Z,77.10
2022-10-22T22:11:40.594Z,77.20
2022-10-22T22:14:07.507Z,77.80
2022-10-22T22:16:34.932Z,82.00
2022-10-22T22:19:05.947Z,86.10
2022-10-22T22:24:01.035Z,98.40
2022-10-22T22:26:29.818Z,100.70
2022-10-22T22:29:00.607Z,86.80
2022-10-22T22:31:32.399Z,87.70
2022-10-22T22:34:00.903Z,87.20
2022-10-22T22:36:27.982Z,94.30
2022-10-22T22:38:56.250Z,92.90
2022-10-22T22:41:23.292Z,89.50
2022-10-22T22:43:50.757Z,87.20
2022-10-22T22:46:18.658Z,79.40
2022-10-22T22:48:49.595Z,83.80
2022-10-22T22:51:16.717Z,84.00
2022-10-22T22:53:43.711Z,91.10
2022-10-22T22:56:13.744Z,93.40
2022-10-22T22:59:35.564Z,91.40
2022-10-22T23:02:03.624Z,94.90
2022-10-22T23:04:30.658Z,76.00
2022-10-22T23:06:57.746Z,80.20
2022-10-22T23:09:25.773Z,84.60
2022-10-22T23:11:54.341Z,91.80
2022-10-22T23:14:21.385Z,95.30
2022-10-22T23:16:51.139Z,96.50
2022-10-22T23:19:20.291Z,97.10
2022-10-22T23:21:49.625Z,82.80
2022-10-22T23:24:18.905Z,83.00
2022-10-22T23:26:47.292Z,87.60
2022-10-22T23:29:25.395Z,91.10
2022-10-22T23:34:24.078Z,92.70
2022-10-22T23:36:51.301Z,87.10
2022-10-22T23:39:20.008Z,78.50
2022-10-22T23:41:47.061Z,79.80
2022-10-22T23:44:16.250Z,79.70
2022-10-22T23:46:43.759Z,78.10
2022-10-22T23:49:10.686Z,89.20
2022-10-22T23:51:38.721Z,76.60
2022-10-22T23:54:07.195Z,81.60
2022-10-22T23:56:35.897Z,70.70
2022-10-22T23:59:03.386Z,73.40
